SBRF

Guararapes - Gilberto Freyre International Airport

Recife, Brazil
TAF SBRF 230400Z 2306/2406 22004KT 8000 BKN016 TN23/2308Z TX27/2315Z PROB30 2306/2307 4000 TSRA BKN010 FEW030CB PROB40 TEMPO 2308/2311 4000 RA BKN008 BECMG 2312/2314 13009KT PROB30 TEMPO 2316/2317 4000 RA SCT012 BKN015 FEW025TCU BECMG 2318/2320 SCT023 BECMG 2400/2402 22004KT RMK PEI
Issued Valid From Valid To
Apr-23 @ 04:00 UTC
(5 hours ago)
Apr-23 @ 06:00 UTC
(3 hours ago)
Apr-24 @ 06:00 UTC
(in 21 hours)
Apr-23 @ 06:00 to Apr-23 @ 12:00
TAF SBRF 230400Z 2306/2406 22004KT 8000 BKN016 TN23/2308Z TX27/2315Z
Wind Visibility Clouds
220° at 4 knots 7,998 meters
  • Broken at 1,600' AGL
Expired Click to View Apr-23 @ 06:00 to Apr-23 @ 07:00
PROB30 2306/2307 4000 TSRA BKN010 FEW030CB
Visibility Clouds Conditions
4,007 meters
  • Broken at 1,000' AGL
  • Few at 3,000' AGL
  • Thunderstorm
  • Rain
Temporary  (Probability 40%) Apr-23 @ 08:00 to Apr-23 @ 11:00
PROB40 TEMPO 2308/2311 4000 RA BKN008
Visibility Clouds Conditions
4,007 meters
  • Broken at 800' AGL
  • Rain
Becoming Apr-23 @ 12:00 to Apr-23 @ 18:00
BECMG 2312/2314 13009KT
Wind Visibility Clouds
130° at 9 knots 7,998 meters
  • Broken at 1,600' AGL
Temporary  (Probability 30%) Apr-23 @ 16:00 to Apr-23 @ 17:00
PROB30 TEMPO 2316/2317 4000 RA SCT012 BKN015 FEW025TCU
Visibility Clouds Conditions
4,007 meters
  • Scattered at 1,200' AGL
  • Broken at 1,500' AGL
  • Few at 2,500' AGL
  • Rain
Becoming Apr-23 @ 18:00 to Apr-24 @ 00:00
BECMG 2318/2320 SCT023
Wind Visibility Clouds
130° at 9 knots 7,998 meters
  • Scattered at 2,300' AGL
Becoming Apr-24 @ 00:00 to Apr-24 @ 06:00
BECMG 2400/2402 22004KT RMK PEI
Wind Visibility Clouds
220° at 4 knots 7,998 meters
  • Scattered at 2,300' AGL
TAF SBRF 230400Z 2306/2406 22004KT 8000 BKN016 TN23/2308Z TX27/2315Z PROB30 2306/2307 4000 TSRA BKN010 FEW030CB PROB40 TEMPO 2308/2311 4000 RA BKN008 BECMG 2312/2314 13009KT PROB30 TEMPO 2316/2317 4000 RA SCT012 BKN015 FEW025TCU BECMG 2318/2320 SCT023 BECMG 2400/2402 22004KT RMK PEI
Issued Apr-23 @ 04:00 UTC
(5 hours ago)
Valid From Apr-23 @ 06:00 UTC
(3 hours ago)
Valid To Apr-24 @ 06:00 UTC
(in 21 hours)
Apr-23 @ 06:00 - Apr-23 @ 12:00
Wind Visibility
220° at 4 knots 7,998 meters
Clouds
  • Broken at 1,600' AGL
Apr-23 @ 06:00 - Apr-23 @ 07:00
Clouds
  • Broken at 1,000' AGL
  • Few at 3,000' AGL
Conditions
  • Thunderstorm
  • Rain
Probability 40% Temporary Apr-23 @ 08:00 - Apr-23 @ 11:00
Clouds
  • Broken at 800' AGL
Conditions
  • Rain
Becoming Apr-23 @ 12:00 - Apr-23 @ 18:00
Wind Visibility
130° at 9 knots 7,998 meters
Clouds
  • Broken at 1,600' AGL
Probability 30% Temporary Apr-23 @ 16:00 - Apr-23 @ 17:00
Clouds
  • Scattered at 1,200' AGL
  • Broken at 1,500' AGL
  • Few at 2,500' AGL
Conditions
  • Rain
Becoming Apr-23 @ 18:00 - Apr-24 @ 00:00
Wind Visibility
130° at 9 knots 7,998 meters
Clouds
  • Scattered at 2,300' AGL
Becoming Apr-24 @ 00:00 - Apr-24 @ 06:00
Wind Visibility
220° at 4 knots 7,998 meters
Clouds
  • Scattered at 2,300' AGL